Grizzly Air Cargo 5092


PHNL
Daniel K Inouye International Airport
Honolulu, Hawaii, US
PANC
Ted Stevens Anchorage International Airport
Anchorage, Alaska, US

Activity Log

Date Flight Route Aircraft Duration
No Flights Yet

Route Details

Aircraft Information
Primary: Boeing 767-300BDSF
Backup: Not Available
Route Data
Distance: 2413nm
Sched. Duration: 5h 25m
Avg. Duration: 0h 00m (-525m)
Times Flown: 0
Recm'd Route: MKK4 APACK 3000N/15600W 3500N/15600W 4000N/15600W 4500N/15500W 5000N/15400W 5500N/15300W ODK BAITT NEELL6
Planned Altitude: 39,000ft
Origin Wx: PHNL 271153Z 05011KT 10SM FEW040 BKN065 23/14 A3015 RMK AO2 PK WND 05026/1127 SLP208 60000 T02330144 10239 20233 58013
Dest. Wx: PANC 271153Z 00000KT 10SM CLR M12/M12 A2954 RMK AO2 SLP005 4/019 I1000 I6000 T11171122 11056 21122 52004
Notes: OPERATED FOR GRIZZLY AIR CARGO

Financial History
Total Freight: 0lbs
Average Load: 0lbs/flt
Fuel Used: 0lbs
Avg. Fuel Used: 0lbs/flt
Fuel Expense: $0
Avg. Fuel Expense: $0
Avg. Fuel Cost: $0/lbs
Total Gross Income: $0
Pilot Pay: $0
Total Expenses: $0
Total Revenue: $0
Average Revenue: $0